createdAt,value
2023-03-21T00:01:07.275Z,11.40
2023-03-21T00:03:43.375Z,11.40
2023-03-21T00:06:18.265Z,11.40
2023-03-21T00:08:53.529Z,11.30
2023-03-21T00:11:28.418Z,11.30
2023-03-21T00:14:03.502Z,11.30
2023-03-21T00:16:39.687Z,11.30
2023-03-21T00:19:15.941Z,11.30
2023-03-21T00:22:06.672Z,11.30
2023-03-21T00:24:42.717Z,11.30
2023-03-21T00:27:44.840Z,11.20
2023-03-21T00:30:15.319Z,11.20
2023-03-21T00:32:56.582Z,11.20
2023-03-21T00:38:27.198Z,11.20
2023-03-21T00:41:18.799Z,11.20
2023-03-21T00:43:59.560Z,11.20
2023-03-21T00:46:45.442Z,11.20
2023-03-21T00:49:24.181Z,11.20
2023-03-21T00:52:14.628Z,11.20
2023-03-21T00:54:51.223Z,11.20
2023-03-21T00:57:37.898Z,11.20
2023-03-21T01:00:16.157Z,11.20
2023-03-21T01:03:14.175Z,11.10
2023-03-21T01:06:05.651Z,11.10
2023-03-21T01:08:58.596Z,11.10
2023-03-21T01:11:34.943Z,11.10
2023-03-21T01:14:22.086Z,11.10
2023-03-21T01:16:57.659Z,11.10
2023-03-21T01:19:48.675Z,11.10
2023-03-21T01:22:25.972Z,11.10
2023-03-21T01:25:19.293Z,11.10
2023-03-21T01:27:56.115Z,11.00
2023-03-21T01:30:36.933Z,11.10
2023-03-21T01:33:19.224Z,11.10
2023-03-21T01:36:03.246Z,11.00
2023-03-21T01:38:45.920Z,11.00
2023-03-21T01:41:42.602Z,11.00
2023-03-21T01:44:28.359Z,11.00
2023-03-21T01:47:10.919Z,11.00
2023-03-21T01:50:08.919Z,11.00
2023-03-21T01:52:57.122Z,11.00
2023-03-21T01:55:37.202Z,11.00
2023-03-21T01:58:31.986Z,11.00
2023-03-21T02:01:15.918Z,10.90
2023-03-21T02:03:56.130Z,10.90
2023-03-21T02:07:24.286Z,10.90
2023-03-21T02:10:07.720Z,10.90
2023-03-21T02:12:42.807Z,10.90
2023-03-21T02:15:18.984Z,10.90
2023-03-21T02:18:33.448Z,10.90
2023-03-21T02:21:41.088Z,10.90
2023-03-21T02:25:01.368Z,10.90
2023-03-21T02:27:57.179Z,10.80
2023-03-21T02:31:07.276Z,10.80
2023-03-21T02:34:03.453Z,10.80
2023-03-21T02:37:28.952Z,10.70
2023-03-21T02:40:33.236Z,10.70
2023-03-21T02:43:37.426Z,10.70
2023-03-21T02:46:39.895Z,10.70
2023-03-21T02:49:41.951Z,10.70
2023-03-21T02:52:37.841Z,10.70
2023-03-21T02:55:22.773Z,10.70
2023-03-21T02:58:12.920Z,10.70
2023-03-21T03:00:56.180Z,10.70
2023-03-21T03:03:44.403Z,10.60
2023-03-21T03:06:25.578Z,10.60
2023-03-21T03:09:23.036Z,10.60
2023-03-21T03:12:42.803Z,10.60
2023-03-21T03:15:36.033Z,10.60
2023-03-21T03:18:42.326Z,10.60
2023-03-21T03:21:28.188Z,10.60
2023-03-21T03:24:20.480Z,10.60
2023-03-21T03:27:10.864Z,10.50
2023-03-21T03:29:48.889Z,10.50
2023-03-21T03:32:38.245Z,10.50
2023-03-21T03:35:17.748Z,10.50
2023-03-21T03:38:01.319Z,10.50
2023-03-21T03:40:53.192Z,10.50
2023-03-21T03:43:50.989Z,10.50
2023-03-21T03:46:49.025Z,10.50
2023-03-21T03:49:29.569Z,10.40
2023-03-21T03:52:29.705Z,10.40
2023-03-21T03:55:14.658Z,10.40
2023-03-21T03:57:52.684Z,10.40
2023-03-21T04:00:32.573Z,10.40
2023-03-21T04:03:09.816Z,10.40
2023-03-21T04:05:47.657Z,10.40
2023-03-21T04:08:23.646Z,10.40
2023-03-21T04:11:02.813Z,10.40
2023-03-21T04:13:40.044Z,10.30
2023-03-21T04:16:17.456Z,10.30
2023-03-21T04:18:52.470Z,10.30
2023-03-21T04:21:28.979Z,10.30
2023-03-21T04:24:04.577Z,10.20
2023-03-21T04:26:41.334Z,10.20
2023-03-21T04:29:48.679Z,10.20
2023-03-21T04:32:39.473Z,10.10
2023-03-21T04:35:20.242Z,10.10
2023-03-21T04:37:56.230Z,10.00
2023-03-21T04:40:31.167Z,10.00
2023-03-21T04:43:06.212Z,10.00
2023-03-21T04:45:45.781Z,9.90
2023-03-21T04:48:24.394Z,9.80
2023-03-21T04:51:00.104Z,9.80
2023-03-21T04:53:38.443Z,9.80
2023-03-21T04:56:14.024Z,9.70
2023-03-21T04:58:48.936Z,9.70
2023-03-21T05:01:23.937Z,9.70
2023-03-21T05:04:01.488Z,9.70
2023-03-21T05:06:36.797Z,9.70
2023-03-21T05:09:12.576Z,9.70
2023-03-21T05:11:47.790Z,9.70
2023-03-21T05:14:26.509Z,9.70
2023-03-21T05:17:05.480Z,9.70
2023-03-21T05:19:42.611Z,9.70
2023-03-21T05:22:19.262Z,9.70
2023-03-21T05:24:55.376Z,9.70
2023-03-21T05:28:02.004Z,9.70
2023-03-21T05:30:38.458Z,9.70
2023-03-21T05:33:15.300Z,9.70
2023-03-21T05:35:51.856Z,9.70
2023-03-21T05:38:27.048Z,9.70
2023-03-21T05:41:02.600Z,9.70
2023-03-21T05:43:39.750Z,9.70
2023-03-21T05:46:15.389Z,9.70
2023-03-21T05:48:50.804Z,9.80
2023-03-21T05:51:26.392Z,9.80
2023-03-21T05:54:01.429Z,9.80
2023-03-21T05:56:36.414Z,9.90
2023-03-21T05:59:14.061Z,9.90
2023-03-21T06:01:52.302Z,9.90
2023-03-21T06:04:27.701Z,10.00
2023-03-21T06:07:02.682Z,10.10
2023-03-21T06:09:37.789Z,10.10
2023-03-21T06:12:14.004Z,10.20
2023-03-21T06:15:08.950Z,10.20
2023-03-21T06:18:01.794Z,10.20
2023-03-21T06:20:37.168Z,10.20
2023-03-21T06:23:17.966Z,10.20
2023-03-21T06:25:53.116Z,10.20
2023-03-21T06:28:28.650Z,10.20
2023-03-21T06:31:03.979Z,10.20
2023-03-21T06:33:41.850Z,10.20
2023-03-21T06:36:16.759Z,10.20
2023-03-21T06:38:51.985Z,10.20
2023-03-21T06:41:26.943Z,10.20
2023-03-21T06:44:07.878Z,10.20
2023-03-21T06:46:53.244Z,10.20
2023-03-21T06:49:28.422Z,10.20
2023-03-21T06:52:07.188Z,10.30
2023-03-21T06:54:42.610Z,10.30
2023-03-21T06:57:21.841Z,10.40
2023-03-21T06:59:57.507Z,10.40
2023-03-21T07:02:32.714Z,10.40
2023-03-21T07:05:16.932Z,10.40
2023-03-21T07:07:52.334Z,10.40
2023-03-21T07:10:27.317Z,10.40
2023-03-21T07:13:10.411Z,10.50
2023-03-21T07:16:01.862Z,10.50
2023-03-21T07:18:37.201Z,10.50
2023-03-21T07:21:12.149Z,10.50
2023-03-21T07:23:50.391Z,10.60
2023-03-21T07:26:25.462Z,10.60
2023-03-21T07:29:00.556Z,10.60
2023-03-21T07:31:36.629Z,10.70
2023-03-21T07:34:11.715Z,10.80
2023-03-21T07:36:47.573Z,10.80
2023-03-21T07:39:23.678Z,10.90
2023-03-21T07:42:01.057Z,10.90
2023-03-21T07:44:55.060Z,11.00
2023-03-21T07:47:30.535Z,11.10
2023-03-21T07:50:08.414Z,11.10
2023-03-21T07:52:43.633Z,11.20
2023-03-21T07:55:19.381Z,11.30
2023-03-21T07:57:54.471Z,11.30
2023-03-21T08:00:29.720Z,11.30
2023-03-21T08:03:04.688Z,11.30
2023-03-21T08:05:41.029Z,11.30
2023-03-21T08:08:16.202Z,11.30
2023-03-21T08:10:51.049Z,11.30
2023-03-21T08:13:26.108Z,11.40
2023-03-21T08:16:01.160Z,11.40
2023-03-21T08:18:36.295Z,11.50
2023-03-21T08:21:11.548Z,11.50
2023-03-21T08:23:46.414Z,11.60
2023-03-21T08:26:21.439Z,11.70
2023-03-21T08:28:56.438Z,11.80
2023-03-21T08:31:31.373Z,11.90
2023-03-21T08:34:07.468Z,11.90
2023-03-21T08:36:42.444Z,11.90
2023-03-21T08:39:17.483Z,12.00
2023-03-21T08:41:52.460Z,12.10
2023-03-21T08:44:27.594Z,12.20
2023-03-21T08:47:02.504Z,12.40
2023-03-21T08:49:37.628Z,12.40
2023-03-21T08:52:12.714Z,12.50
2023-03-21T08:54:48.510Z,12.60
2023-03-21T08:57:23.581Z,12.60
2023-03-21T08:59:58.620Z,12.70
2023-03-21T09:02:33.546Z,12.90
2023-03-21T09:05:10.244Z,12.90
2023-03-21T09:07:45.844Z,13.00
2023-03-21T09:10:23.263Z,13.10
2023-03-21T09:12:58.203Z,13.20
2023-03-21T09:15:35.329Z,13.30
2023-03-21T09:18:13.396Z,13.40
2023-03-21T09:20:50.337Z,13.50
2023-03-21T09:23:25.238Z,13.60
2023-03-21T09:26:00.123Z,13.70
2023-03-21T09:28:37.509Z,13.80
2023-03-21T09:31:14.612Z,14.00
2023-03-21T09:33:51.451Z,14.00
2023-03-21T09:36:27.257Z,14.30
2023-03-21T09:39:04.013Z,14.40
2023-03-21T09:42:28.274Z,14.50
2023-03-21T09:45:16.140Z,14.80
2023-03-21T09:47:54.208Z,14.90
2023-03-21T09:50:36.276Z,15.10
2023-03-21T09:53:28.241Z,15.30
2023-03-21T09:56:05.311Z,15.70
2023-03-21T09:58:46.931Z,15.70
2023-03-21T10:01:32.852Z,15.60
2023-03-21T10:04:16.712Z,15.90
2023-03-21T10:06:59.365Z,16.20
2023-03-21T10:09:34.811Z,16.30
2023-03-21T10:12:22.357Z,16.50
2023-03-21T10:15:00.949Z,16.60
2023-03-21T10:17:58.575Z,16.60
2023-03-21T10:20:36.679Z,16.70
2023-03-21T10:23:17.263Z,16.80
2023-03-21T10:25:58.549Z,17.00
2023-03-21T10:28:51.982Z,17.10
2023-03-21T10:31:30.121Z,17.30
2023-03-21T10:34:17.194Z,17.30
2023-03-21T10:36:52.195Z,17.50
2023-03-21T10:39:40.313Z,17.70
2023-03-21T10:42:32.729Z,17.60
2023-03-21T10:45:17.590Z,17.60
2023-03-21T10:47:53.253Z,17.80
2023-03-21T10:50:30.202Z,18.20
2023-03-21T10:53:19.204Z,18.60
2023-03-21T10:55:59.181Z,18.90
2023-03-21T10:58:43.241Z,19.00
2023-03-21T11:01:31.106Z,19.20
2023-03-21T11:04:16.544Z,19.10
2023-03-21T11:06:57.995Z,19.10
2023-03-21T11:09:47.827Z,19.20
2023-03-21T11:12:41.283Z,19.50
2023-03-21T11:15:52.230Z,19.50
2023-03-21T11:18:33.044Z,19.50
2023-03-21T11:21:12.143Z,19.70
2023-03-21T11:23:50.048Z,19.80
2023-03-21T11:26:36.563Z,19.80
2023-03-21T11:29:33.071Z,20.00
2023-03-21T11:32:34.972Z,20.10
2023-03-21T11:35:20.731Z,19.90
2023-03-21T11:37:56.539Z,19.70
2023-03-21T11:40:36.882Z,19.60
2023-03-21T11:43:18.053Z,19.60
2023-03-21T11:46:14.835Z,19.70
2023-03-21T11:48:50.670Z,19.70
2023-03-21T11:51:43.913Z,19.70
2023-03-21T11:54:33.452Z,19.80
2023-03-21T11:57:31.849Z,19.70
2023-03-21T12:00:17.969Z,19.70
2023-03-21T12:03:38.138Z,19.60
2023-03-21T12:06:26.425Z,19.50
2023-03-21T12:09:11.617Z,19.10
2023-03-21T12:12:04.966Z,19.00
2023-03-21T12:15:18.654Z,18.90
2023-03-21T12:18:43.586Z,19.20
2023-03-21T12:21:34.776Z,19.30
2023-03-21T12:24:27.223Z,19.40
2023-03-21T12:27:29.428Z,19.60
2023-03-21T12:30:32.393Z,19.60
2023-03-21T12:33:31.914Z,19.50
2023-03-21T12:36:18.290Z,19.60
2023-03-21T12:39:39.171Z,19.80
2023-03-21T12:42:41.709Z,19.70
2023-03-21T12:45:27.509Z,19.70
2023-03-21T12:48:47.374Z,19.80
2023-03-21T12:51:35.286Z,19.90
2023-03-21T12:54:38.027Z,20.00
2023-03-21T12:57:20.042Z,20.10
2023-03-21T13:00:00.052Z,20.30
2023-03-21T13:02:41.039Z,20.40
2023-03-21T13:05:41.056Z,20.60
2023-03-21T13:08:53.332Z,20.80
2023-03-21T13:11:31.083Z,21.00
2023-03-21T13:14:25.669Z,21.10
2023-03-21T13:17:30.935Z,21.10
2023-03-21T13:20:41.135Z,21.30
2023-03-21T13:23:21.164Z,21.30
2023-03-21T13:25:57.842Z,21.10
2023-03-21T13:28:36.296Z,21.00
2023-03-21T13:31:25.652Z,20.90
2023-03-21T13:34:00.549Z,20.80
2023-03-21T13:36:38.112Z,20.70
2023-03-21T13:39:26.605Z,20.70
2023-03-21T13:42:06.529Z,20.70
2023-03-21T13:44:52.938Z,20.60
2023-03-21T13:48:06.002Z,20.50
2023-03-21T13:51:04.871Z,20.30
2023-03-21T13:53:45.148Z,20.20
2023-03-21T13:56:22.745Z,20.10
2023-03-21T13:59:03.681Z,20.00
2023-03-21T14:01:58.781Z,20.00
2023-03-21T14:04:42.443Z,20.00
2023-03-21T14:07:46.462Z,20.10
2023-03-21T14:10:31.430Z,20.20
2023-03-21T14:13:09.929Z,20.30
2023-03-21T14:15:55.628Z,20.40
2023-03-21T14:19:01.462Z,20.40
2023-03-21T14:21:30.332Z,20.40
2023-03-21T14:24:12.543Z,20.50
2023-03-21T14:26:51.984Z,20.50
2023-03-21T14:29:33.541Z,20.60
2023-03-21T14:32:22.672Z,20.70
2023-03-21T14:35:01.114Z,20.70
2023-03-21T14:37:42.525Z,20.70
2023-03-21T14:40:29.132Z,20.70
2023-03-21T14:43:06.258Z,20.80
2023-03-21T14:45:41.370Z,20.80
2023-03-21T14:48:17.252Z,20.80
2023-03-21T14:50:56.346Z,20.90
2023-03-21T14:53:37.161Z,21.00
2023-03-21T14:56:21.360Z,21.10
2023-03-21T14:58:56.930Z,21.10
2023-03-21T15:01:34.753Z,20.90
2023-03-21T15:04:14.324Z,20.70
2023-03-21T15:06:52.999Z,20.50
2023-03-21T15:09:30.816Z,20.30
2023-03-21T15:12:09.220Z,20.00
2023-03-21T15:14:44.188Z,19.80
2023-03-21T15:17:20.474Z,19.80
2023-03-21T15:19:56.052Z,19.80
2023-03-21T15:22:37.556Z,20.00
2023-03-21T15:25:22.892Z,20.10
2023-03-21T15:27:57.785Z,19.90
2023-03-21T15:30:34.206Z,19.90
2023-03-21T15:33:12.699Z,19.70
2023-03-21T15:35:56.550Z,19.80
2023-03-21T15:38:40.895Z,19.70
2023-03-21T15:41:21.783Z,19.70
2023-03-21T15:44:02.576Z,19.60
2023-03-21T15:46:52.109Z,19.30
2023-03-21T15:49:30.236Z,19.10
2023-03-21T15:52:16.049Z,19.00
2023-03-21T15:54:55.965Z,18.90
2023-03-21T15:57:34.010Z,18.80
2023-03-21T16:00:41.958Z,18.60
2023-03-21T16:03:28.755Z,18.50
2023-03-21T16:06:19.142Z,18.40
2023-03-21T16:09:14.129Z,18.30
2023-03-21T16:11:59.463Z,18.20
2023-03-21T16:14:34.295Z,18.10
2023-03-21T16:17:27.374Z,18.10
2023-03-21T16:20:02.224Z,18.00
2023-03-21T16:22:37.181Z,18.00
2023-03-21T16:25:12.154Z,17.90
2023-03-21T16:27:47.641Z,17.80
2023-03-21T16:30:23.380Z,17.80
2023-03-21T16:32:58.271Z,17.70
2023-03-21T16:35:33.177Z,17.50
2023-03-21T16:38:10.314Z,17.50
2023-03-21T16:40:45.152Z,17.50
2023-03-21T16:43:20.485Z,17.40
2023-03-21T16:45:55.613Z,17.40
2023-03-21T16:48:30.589Z,17.40
2023-03-21T16:51:05.861Z,17.30
2023-03-21T16:53:40.809Z,17.30
2023-03-21T16:56:25.401Z,17.20
2023-03-21T16:59:00.220Z,17.10
2023-03-21T17:01:38.309Z,17.00
2023-03-21T17:04:15.994Z,17.00
2023-03-21T17:06:54.437Z,16.90
2023-03-21T17:09:29.409Z,16.80
2023-03-21T17:12:10.220Z,16.80
2023-03-21T17:14:45.945Z,16.70
2023-03-21T17:17:21.582Z,16.60
2023-03-21T17:19:56.567Z,16.60
2023-03-21T17:22:31.446Z,16.50
2023-03-21T17:25:06.443Z,16.50
2023-03-21T17:27:41.878Z,16.40
2023-03-21T17:30:24.298Z,16.30
2023-03-21T17:32:59.461Z,16.30
2023-03-21T17:35:34.397Z,16.30
2023-03-21T17:38:16.757Z,16.20
2023-03-21T17:40:51.679Z,16.20
2023-03-21T17:43:26.562Z,16.10
2023-03-21T17:46:01.535Z,16.00
2023-03-21T17:48:36.679Z,16.00
2023-03-21T17:51:15.825Z,15.90
2023-03-21T17:53:51.372Z,15.90
2023-03-21T17:56:32.104Z,15.90
2023-03-21T17:59:11.921Z,15.80
2023-03-21T18:01:47.372Z,15.80
2023-03-21T18:04:22.286Z,15.80
2023-03-21T18:06:59.831Z,15.70
2023-03-21T18:09:35.573Z,15.70
2023-03-21T18:12:10.754Z,15.70
2023-03-21T18:14:45.676Z,15.70
2023-03-21T18:17:21.343Z,15.70
2023-03-21T18:19:57.209Z,15.60
2023-03-21T18:22:32.130Z,15.60
2023-03-21T18:25:08.008Z,15.50
2023-03-21T18:28:06.967Z,15.50
2023-03-21T18:31:07.119Z,15.50
2023-03-21T18:33:34.218Z,15.50
2023-03-21T18:36:10.327Z,15.40
2023-03-21T18:38:46.032Z,15.40
2023-03-21T18:41:22.730Z,15.40
2023-03-21T18:44:02.987Z,15.40
2023-03-21T18:46:50.219Z,15.30
2023-03-21T18:50:05.952Z,15.30
2023-03-21T18:52:20.790Z,15.20
2023-03-21T18:54:55.701Z,15.20
2023-03-21T18:57:36.978Z,15.10
2023-03-21T19:00:17.225Z,15.10
2023-03-21T19:03:04.034Z,15.10
2023-03-21T19:05:45.424Z,15.00
2023-03-21T19:08:20.413Z,15.00
2023-03-21T19:10:59.582Z,14.90
2023-03-21T19:13:36.392Z,14.90
2023-03-21T19:16:11.778Z,14.90
2023-03-21T19:18:54.864Z,14.80
2023-03-21T19:21:31.689Z,14.80
2023-03-21T19:24:26.414Z,14.80
2023-03-21T19:27:04.078Z,14.80
2023-03-21T19:29:39.017Z,14.80
2023-03-21T19:32:13.988Z,14.70
2023-03-21T19:34:48.993Z,14.60
2023-03-21T19:37:23.890Z,14.50
2023-03-21T19:39:58.816Z,14.50
2023-03-21T19:42:36.216Z,14.40
2023-03-21T19:45:12.077Z,14.40
2023-03-21T19:47:47.022Z,14.40
2023-03-21T19:50:49.239Z,14.40
2023-03-21T19:53:23.498Z,14.40
2023-03-21T19:56:03.479Z,14.30
2023-03-21T19:58:38.680Z,14.40
2023-03-21T20:01:13.824Z,14.30
2023-03-21T20:03:48.792Z,14.30
2023-03-21T20:06:24.029Z,14.30
2023-03-21T20:09:47.318Z,14.30
2023-03-21T20:11:54.486Z,14.20
2023-03-21T20:14:29.379Z,14.20
2023-03-21T20:17:04.480Z,14.20
2023-03-21T20:19:39.459Z,14.20
2023-03-21T20:22:24.522Z,14.20
2023-03-21T20:25:05.234Z,14.10
2023-03-21T20:27:42.047Z,14.10
2023-03-21T20:30:18.932Z,14.10
2023-03-21T20:32:54.521Z,14.10
2023-03-21T20:36:17.839Z,14.00
2023-03-21T20:38:24.924Z,14.00
2023-03-21T20:41:02.540Z,14.00
2023-03-21T20:46:32.931Z,13.90
2023-03-21T20:49:08.096Z,13.80
2023-03-21T20:54:38.630Z,13.90
2023-03-21T20:57:13.626Z,13.90
2023-03-21T20:59:48.503Z,13.90
2023-03-21T21:02:24.533Z,13.90
2023-03-21T21:05:24.670Z,13.80
2023-03-21T21:07:54.382Z,13.80
2023-03-21T21:10:29.723Z,13.80
2023-03-21T21:13:07.352Z,13.70
2023-03-21T21:15:42.263Z,13.70
2023-03-21T21:18:17.199Z,13.60
2023-03-21T21:20:56.579Z,13.60
2023-03-21T21:23:37.006Z,13.60
2023-03-21T21:26:13.026Z,13.60
2023-03-21T21:28:48.160Z,13.50
2023-03-21T21:31:23.136Z,13.50
2023-03-21T21:33:59.043Z,13.50
2023-03-21T21:36:33.950Z,13.40
2023-03-21T21:39:09.374Z,13.40
2023-03-21T21:41:44.278Z,13.40
2023-03-21T21:44:19.696Z,13.30
2023-03-21T21:46:54.797Z,13.30
2023-03-21T21:49:29.896Z,13.30
2023-03-21T21:52:05.084Z,13.30
2023-03-21T21:54:45.439Z,13.20
2023-03-21T21:57:20.361Z,13.20
2023-03-21T21:59:55.247Z,13.10
2023-03-21T22:02:30.207Z,13.10
2023-03-21T22:05:05.721Z,13.10
2023-03-21T22:07:40.629Z,13.10
2023-03-21T22:10:16.219Z,13.00
2023-03-21T22:12:51.293Z,13.00
2023-03-21T22:15:26.596Z,13.00
2023-03-21T22:18:01.524Z,13.00
2023-03-21T22:20:36.838Z,13.00
2023-03-21T22:23:12.427Z,13.00
2023-03-21T22:25:51.711Z,13.00
2023-03-21T22:28:26.668Z,13.00
2023-03-21T22:31:13.956Z,13.00
2023-03-21T22:33:49.841Z,13.00
2023-03-21T22:36:24.958Z,12.90
2023-03-21T22:39:00.392Z,12.90
2023-03-21T22:41:35.219Z,12.80
2023-03-21T22:44:10.675Z,12.80
2023-03-21T22:46:45.778Z,12.80
2023-03-21T22:49:20.701Z,12.70
2023-03-21T22:51:55.580Z,12.70
2023-03-21T22:54:31.179Z,12.70
2023-03-21T22:57:06.734Z,12.70
2023-03-21T22:59:41.623Z,12.60
2023-03-21T23:02:17.634Z,12.60
2023-03-21T23:04:52.554Z,12.60
2023-03-21T23:07:27.385Z,12.60
2023-03-21T23:10:02.455Z,12.50
2023-03-21T23:12:37.625Z,12.50
2023-03-21T23:15:12.534Z,12.40
2023-03-21T23:17:47.970Z,12.40
2023-03-21T23:20:22.869Z,12.30
2023-03-21T23:22:58.604Z,12.20
2023-03-21T23:25:33.609Z,12.20
2023-03-21T23:28:08.575Z,12.10
2023-03-21T23:30:43.663Z,12.00
2023-03-21T23:33:21.819Z,12.00
2023-03-21T23:35:56.942Z,12.00
2023-03-21T23:38:32.458Z,11.90
2023-03-21T23:41:14.084Z,11.80
2023-03-21T23:43:49.428Z,11.80
2023-03-21T23:46:24.454Z,11.70
2023-03-21T23:48:59.390Z,11.60
2023-03-21T23:51:34.256Z,11.60
2023-03-21T23:54:09.788Z,11.50
2023-03-21T23:56:44.935Z,11.40
2023-03-21T23:59:19.817Z,11.40
